Terminal Aerodrome Forecast
Issued by NWS Portland, ME

Home | Current Version | Previous Version | Text Only | Print | Product List | Glossary On
Versions: 1 2 3 4 5 6 7 8 9 10 11 12 13 14 15 16 17 18 19 20 21 22 23 24 25 26 27 28 29
695
FTUS41 KGYX 251120
TAFCON
TAF
KCON 251120Z 2512/2612 04007KT 1SM -SN OVC015
      TEMPO 2513/2517 1/4SM +SN VV004
     FM251800 05007KT 1SM -FZRASNPL OVC007
     FM252000 08008KT 2SM -RA OVC007
     FM252300 35006KT P6SM OVC003
     FM260600 25007KT P6SM SCT040=

USA.gov is the U.S. government's official web portal to all federal, state and local government web resources and services.